Weather reports worldwide

Advertisment
Passo Rolle, Italy (16021): temperature & dewpoint: 17.04.2019 19:00:00 - 23.04.2019 19:00:00 (CEST)Passo Rolle, Italy (16021): wind speed: 17.04.2019 19:00:00 - 23.04.2019 19:00:00 (CEST)Passo Rolle, Italy (16021): wind direction: 17.04.2019 19:00:00 - 23.04.2019 19:00:00 (CEST)Passo Rolle, Italy (16021): visibility: 17.04.2019 19:00:00 - 23.04.2019 19:00:00 (CEST)
Date & Time tt [°C] td [°C] ff [km/h] ff [kn] dd vv [km]
23.04.2019 19:00:00 - - - - - -
23.04.2019 18:00:00 - - - - - -
23.04.2019 17:00:00 - - - - - -
23.04.2019 16:00:00 - - - - - -
23.04.2019 15:00:00 - - - - - -
23.04.2019 14:00:00 - - - - - -
23.04.2019 13:00:00 - - - - - -
23.04.2019 12:00:00 - - - - - -
23.04.2019 11:00:00 - - - - - -
23.04.2019 10:00:00 - - - - - -
23.04.2019 09:00:00 - - - - - -
23.04.2019 08:00:00 - - - - - -
23.04.2019 07:00:00 - - - - - -
23.04.2019 06:00:00 - - - - - -
23.04.2019 05:00:00 - - - - - -
23.04.2019 04:00:00 - - - - - -
23.04.2019 03:00:00 - - - - - -
23.04.2019 02:00:00 - - - - - -
23.04.2019 01:00:00 - - - - - -
23.04.2019 00:00:00 - - - - - -
22.04.2019 23:00:00 0,2 -1,0 18 10 SE 0,3
22.04.2019 22:00:00 - - - - - -
22.04.2019 21:00:00 - - - - - -
22.04.2019 20:00:00 2,2 1,0 18 10 SSE 0,8
22.04.2019 19:00:00 - - - - - -
22.04.2019 18:00:00 - - - - - -
22.04.2019 17:00:00 5,8 -4,4 16 9 SE 75
22.04.2019 16:00:00 5,0 -6,0 15 8 SE 10
22.04.2019 15:00:00 6,0 -7,0 15 8 SE 10
22.04.2019 14:00:00 5,8 -7,4 16 9 SSE 75
22.04.2019 13:00:00 5,0 -8,0 15 8 SE 10
22.04.2019 12:00:00 4,0 -6,0 13 7 SE 10
22.04.2019 11:00:00 3,4 -6,0 15 8 SE 75
22.04.2019 10:00:00 2,0 -9,0 16 9 SE 10
22.04.2019 09:00:00 2,0 -9,0 11 6 ESE 10
22.04.2019 08:00:00 1,0 -9,9 11 6 ESE 75
22.04.2019 07:00:00 1,0 -10,0 9 5 SSE 10
22.04.2019 06:00:00 - - - - - -
22.04.2019 05:00:00 1,0 -0,5 11 6 SE 10
22.04.2019 04:00:00 - - - - - -
22.04.2019 03:00:00 - - - - - -
22.04.2019 02:00:00 1,4 0,5 8 4 SE 10
22.04.2019 01:00:00 - - - - - -
22.04.2019 00:00:00 - - - - - -
21.04.2019 23:00:00 - - - - - -
21.04.2019 22:00:00 - - - - - -
21.04.2019 21:00:00 - - - - - -
21.04.2019 20:00:00 6,8 -5,2 18 10 SSE 20
21.04.2019 19:00:00 7,0 -6,0 11 6 S 10
21.04.2019 18:00:00 7,0 -6,0 15 8 SSE 10
21.04.2019 17:00:00 6,4 -6,9 11 6 SE 40
21.04.2019 16:00:00 7,0 -7,0 8 4 S 10
21.04.2019 15:00:00 - - - - - -
21.04.2019 14:00:00 5,8 -6,8 11 6 S 40
21.04.2019 13:00:00 6,0 -9,0 11 6 S 10
21.04.2019 12:00:00 - - - - - -
21.04.2019 11:00:00 3,6 -1,7 9 5 SE 60
21.04.2019 10:00:00 2,0 -3,0 2 1 - 10
21.04.2019 09:00:00 2,0 -3,0 0 0 N 10
21.04.2019 08:00:00 1,6 -3,5 9 5 NNW 40
21.04.2019 07:00:00 2,0 -3,0 8 4 N 10
21.04.2019 06:00:00 - - - - - -
21.04.2019 05:00:00 1,8 -2,3 9 5 NNW 40
21.04.2019 04:00:00 - - - - - -
21.04.2019 03:00:00 - - - - - -
21.04.2019 02:00:00 2,4 -5,7 4 2 N 10
21.04.2019 01:00:00 - - - - - -
21.04.2019 00:00:00 - - - - - -
20.04.2019 23:00:00 3,2 -6,2 4 2 NNW 10
20.04.2019 22:00:00 - - - - - -
20.04.2019 21:00:00 - - - - - -
20.04.2019 20:00:00 7,8 -7,1 8 4 SSE 40
20.04.2019 19:00:00 7,0 -6,0 9 5 SE 10
20.04.2019 18:00:00 6,0 -8,0 8 4 ENE 10
20.04.2019 17:00:00 5,4 -8,5 8 4 NE 75
20.04.2019 16:00:00 - - - - - -
20.04.2019 15:00:00 5,0 -8,0 8 4 NNE 10
20.04.2019 14:00:00 4,6 -7,5 9 5 E 75
20.04.2019 13:00:00 4,0 -6,0 5 3 E 10
20.04.2019 12:00:00 3,0 -5,0 5 3 ESE 10
20.04.2019 11:00:00 2,4 -4,1 5 3 ESE 75
20.04.2019 10:00:00 1,0 -4,0 2 1 NNE 10
20.04.2019 09:00:00 0,0 -4,0 4 2 NNE 10
20.04.2019 08:00:00 0,2 -4,6 0 0 N 30
20.04.2019 07:00:00 1,0 -3,0 0 0 N 10
20.04.2019 06:00:00 1,0 -2,0 4 2 ESE 10
20.04.2019 05:00:00 1,0 -1,4 5 3 ESE 10
20.04.2019 04:00:00 - - - - - -
20.04.2019 03:00:00 - - - - - -
20.04.2019 02:00:00 1,6 -0,2 9 5 E 10
20.04.2019 01:00:00 - - - - - -
20.04.2019 00:00:00 - - - - - -
19.04.2019 23:00:00 1,8 -1,1 8 4 E 10
19.04.2019 22:00:00 - - - - - -
19.04.2019 21:00:00 - - - - - -
19.04.2019 20:00:00 7,0 -3,0 13 7 ESE 30
19.04.2019 19:00:00 6,0 -6,0 15 8 ESE 10
19.04.2019 18:00:00 6,0 -6,0 15 8 SE 10
19.04.2019 17:00:00 4,6 -8,2 11 6 SE 30
19.04.2019 16:00:00 4,0 -9,0 5 3 E 10
19.04.2019 15:00:00 4,0 -9,0 5 3 ENE 10
19.04.2019 14:00:00 3,8 -7,0 8 4 E 30
19.04.2019 13:00:00 3,0 -5,0 9 5 ENE 10
19.04.2019 12:00:00 2,0 -4,0 8 4 ENE 10
19.04.2019 11:00:00 1,4 -2,7 4 2 E 20
19.04.2019 10:00:00 0,0 -2,0 4 2 N 10
19.04.2019 09:00:00 -1,0 -3,0 15 8 N 10
19.04.2019 08:00:00 -1,2 -2,3 4 2 WNW 20
19.04.2019 07:00:00 -1,0 -3,0 8 4 ESE 10
19.04.2019 06:00:00 -1,0 -3,0 9 5 E 0,8
19.04.2019 05:00:00 0,0 -0,7 8 4 E 0,1
19.04.2019 04:00:00 - - - - - -
19.04.2019 03:00:00 - - - - - -
19.04.2019 02:00:00 0,2 -0,4 13 7 SSE 0,1
19.04.2019 01:00:00 - - - - - -
19.04.2019 00:00:00 - - - - - -
18.04.2019 23:00:00 1,0 0,3 9 5 SSE 0,1
18.04.2019 22:00:00 - - - - - -
18.04.2019 21:00:00 - - - - - -
18.04.2019 20:00:00 0,8 -0,4 13 7 ESE 0,2
18.04.2019 19:00:00 1,0 -1,0 15 8 ESE 0,8
18.04.2019 18:00:00 2,0 0,0 13 7 ESE 0,8
18.04.2019 17:00:00 1,2 -0,1 24 13 SE 0,3
18.04.2019 16:00:00 2,0 -3,0 29 16 SE 10
18.04.2019 15:00:00 4,0 -3,0 21 11 SE 10
18.04.2019 14:00:00 4,6 -3,0 16 9 SE 20
18.04.2019 13:00:00 5,0 -3,0 13 7 SE 10
18.04.2019 12:00:00 4,0 -2,0 9 5 ESE 10
18.04.2019 11:00:00 3,2 -1,9 9 5 ESE 15
18.04.2019 10:00:00 2,0 -1,0 13 7 ESE 10
18.04.2019 09:00:00 0,0 -2,0 8 4 ESE 10
18.04.2019 08:00:00 0,2 -1,6 9 5 ESE 12
18.04.2019 07:00:00 0,0 -1,0 5 3 ESE 10
18.04.2019 06:00:00 - - - - - -
18.04.2019 05:00:00 0,2 -1,0 13 7 ESE 10
18.04.2019 04:00:00 - - - - - -
18.04.2019 03:00:00 - - - - - -
18.04.2019 02:00:00 0,8 -0,2 13 7 SE 10
18.04.2019 01:00:00 - - - - - -
18.04.2019 00:00:00 - - - - - -
17.04.2019 23:00:00 1,0 -0,8 8 4 ESE 15
17.04.2019 22:00:00 - - - - - -
17.04.2019 21:00:00 - - - - - -
17.04.2019 20:00:00 3,0 -1,0 5 3 E 50
17.04.2019 19:00:00 4,0 -2,0 9 5 ESE 10

tt = temperature
td = dewpoint
ff = wind speed
dd = wind direction
vv = visibility

Next stations